createdAt,value
2023-04-22T00:01:45.655Z,6.10
2023-04-22T00:04:34.223Z,6.20
2023-04-22T00:07:21.311Z,6.10
2023-04-22T00:10:09.205Z,6.10
2023-04-22T00:12:56.294Z,6.00
2023-04-22T00:15:43.252Z,6.00
2023-04-22T00:18:29.943Z,6.00
2023-04-22T00:21:18.158Z,5.90
2023-04-22T00:24:05.326Z,5.90
2023-04-22T00:26:52.049Z,5.80
2023-04-22T00:29:39.670Z,5.80
2023-04-22T00:32:27.173Z,5.80
2023-04-22T00:35:14.129Z,5.90
2023-04-22T00:38:02.117Z,6.00
2023-04-22T00:40:48.909Z,5.80
2023-04-22T00:43:35.813Z,5.80
2023-04-22T00:46:22.594Z,5.70
2023-04-22T00:49:10.050Z,5.60
2023-04-22T00:51:56.663Z,5.60
2023-04-22T00:54:44.818Z,5.50
2023-04-22T00:57:33.418Z,5.50
2023-04-22T01:00:26.791Z,5.50
2023-04-22T01:03:13.996Z,5.50
2023-04-22T01:06:02.712Z,5.40
2023-04-22T01:08:49.570Z,5.30
2023-04-22T01:11:38.235Z,5.40
2023-04-22T01:14:25.579Z,5.30
2023-04-22T01:17:14.539Z,5.20
2023-04-22T01:20:01.670Z,5.20
2023-04-22T01:22:51.980Z,5.20
2023-04-22T01:25:40.418Z,5.10
2023-04-22T01:28:27.987Z,5.00
2023-04-22T01:31:14.882Z,5.00
2023-04-22T01:34:01.992Z,4.90
2023-04-22T01:36:49.090Z,4.80
2023-04-22T01:39:36.961Z,4.70
2023-04-22T01:42:25.750Z,4.70
2023-04-22T01:45:15.110Z,4.70
2023-04-22T01:48:02.394Z,4.60
2023-04-22T01:50:49.549Z,4.60
2023-04-22T01:53:37.719Z,4.50
2023-04-22T01:56:24.892Z,4.50
2023-04-22T01:59:13.455Z,4.50
2023-04-22T02:02:00.658Z,4.40
2023-04-22T02:04:48.132Z,4.30
2023-04-22T02:07:36.483Z,4.40
2023-04-22T02:10:24.279Z,4.40
2023-04-22T02:13:11.304Z,4.40
2023-04-22T02:15:59.821Z,4.40
2023-04-22T02:18:46.788Z,4.40
2023-04-22T02:21:33.753Z,4.40
2023-04-22T02:24:20.778Z,4.40
2023-04-22T02:27:08.845Z,4.50
2023-04-22T02:29:55.839Z,4.30
2023-04-22T02:32:44.053Z,4.30
2023-04-22T02:35:31.248Z,4.30
2023-04-22T02:38:18.562Z,4.30
2023-04-22T02:41:05.881Z,4.30
2023-04-22T02:43:53.018Z,4.30
2023-04-22T02:46:39.969Z,4.20
2023-04-22T02:49:28.578Z,4.20
2023-04-22T02:52:15.713Z,4.10
2023-04-22T02:55:02.708Z,4.20
2023-04-22T02:57:49.620Z,4.00
2023-04-22T03:00:36.594Z,3.90
2023-04-22T03:03:23.440Z,3.90
2023-04-22T03:06:12.106Z,3.80
2023-04-22T03:08:59.198Z,3.70
2023-04-22T03:11:46.525Z,3.70
2023-04-22T03:14:33.705Z,3.60
2023-04-22T03:17:23.388Z,3.60
2023-04-22T03:20:11.837Z,3.60
2023-04-22T03:23:00.157Z,3.50
2023-04-22T03:25:46.969Z,3.70
2023-04-22T03:28:34.172Z,3.60
2023-04-22T03:31:20.987Z,3.50
2023-04-22T03:34:07.842Z,3.40
2023-04-22T03:36:54.736Z,3.40
2023-04-22T03:39:43.341Z,3.30
2023-04-22T03:42:30.513Z,3.30
2023-04-22T03:45:17.613Z,3.30
2023-04-22T03:48:05.028Z,3.20
2023-04-22T03:50:51.714Z,3.10
2023-04-22T03:53:38.803Z,3.10
2023-04-22T03:56:27.036Z,3.10
2023-04-22T03:59:13.924Z,3.00
2023-04-22T04:02:00.989Z,3.10
2023-04-22T04:04:47.963Z,3.00
2023-04-22T04:07:35.355Z,3.00
2023-04-22T04:10:22.026Z,3.00
2023-04-22T04:13:10.415Z,2.90
2023-04-22T04:15:58.635Z,2.90
2023-04-22T04:18:48.084Z,2.90
2023-04-22T04:21:35.293Z,3.00
2023-04-22T04:24:22.403Z,2.90
2023-04-22T04:27:09.982Z,2.90
2023-04-22T04:29:58.374Z,2.90
2023-04-22T04:32:45.643Z,3.00
2023-04-22T04:35:34.501Z,2.90
2023-04-22T04:38:21.586Z,2.90
2023-04-22T04:41:09.675Z,3.00
2023-04-22T04:43:56.703Z,3.00
2023-04-22T04:46:46.736Z,3.00
2023-04-22T04:49:39.943Z,3.00
2023-04-22T04:52:27.609Z,3.00
2023-04-22T04:55:14.415Z,3.00
2023-04-22T04:58:01.220Z,3.00
2023-04-22T05:00:48.279Z,3.00
2023-04-22T05:03:36.454Z,3.00
2023-04-22T05:06:24.102Z,3.20
2023-04-22T05:09:11.227Z,3.30
2023-04-22T05:11:58.145Z,3.40
2023-04-22T05:14:46.662Z,3.40
2023-04-22T05:17:33.780Z,3.50
2023-04-22T05:20:22.126Z,3.50
2023-04-22T05:23:09.473Z,3.70
2023-04-22T05:25:56.803Z,3.80
2023-04-22T05:28:45.826Z,3.80
2023-04-22T05:31:32.694Z,3.80
2023-04-22T05:34:19.749Z,4.00
2023-04-22T05:37:08.396Z,3.90
2023-04-22T05:39:55.398Z,3.80
2023-04-22T05:42:42.665Z,3.80
2023-04-22T05:45:29.858Z,3.90
2023-04-22T05:48:16.466Z,3.90
2023-04-22T05:51:03.424Z,4.00
2023-04-22T05:53:51.889Z,4.10
2023-04-22T05:56:39.041Z,4.20
2023-04-22T05:59:26.847Z,4.20
2023-04-22T06:02:14.051Z,4.30
2023-04-22T06:05:01.877Z,4.20
2023-04-22T06:07:48.958Z,4.40
2023-04-22T06:10:40.484Z,4.40
2023-04-22T06:13:27.872Z,4.60
2023-04-22T06:16:15.070Z,4.70
2023-04-22T06:19:02.019Z,5.00
2023-04-22T06:21:49.014Z,5.00
2023-04-22T06:24:35.840Z,5.10
2023-04-22T06:27:24.169Z,5.40
2023-04-22T06:30:12.340Z,5.50
2023-04-22T06:32:59.372Z,5.60
2023-04-22T06:35:47.140Z,5.80
2023-04-22T06:38:37.013Z,6.40
2023-04-22T06:41:24.640Z,7.60
2023-04-22T06:44:12.853Z,8.40
2023-04-22T06:46:59.685Z,9.70
2023-04-22T06:49:46.744Z,10.30
2023-04-22T06:52:33.328Z,10.00
2023-04-22T06:55:20.697Z,10.20
2023-04-22T06:58:07.909Z,10.50
2023-04-22T07:00:56.077Z,10.90
2023-04-22T07:03:43.344Z,11.20
2023-04-22T07:06:30.795Z,11.70
2023-04-22T07:09:18.131Z,12.40
2023-04-22T07:12:05.267Z,12.20
2023-04-22T07:14:51.915Z,12.40
2023-04-22T07:17:41.329Z,12.60
2023-04-22T07:20:28.069Z,12.60
2023-04-22T07:23:15.180Z,13.20
2023-04-22T07:26:02.088Z,13.20
2023-04-22T07:28:48.737Z,13.90
2023-04-22T07:31:37.716Z,13.40
2023-04-22T07:34:26.312Z,13.80
2023-04-22T07:37:13.455Z,13.20
2023-04-22T07:40:01.470Z,13.90
2023-04-22T07:42:48.814Z,14.30
2023-04-22T07:45:35.908Z,14.00
2023-04-22T07:48:22.760Z,14.80
2023-04-22T07:51:11.092Z,14.60
2023-04-22T07:53:57.806Z,14.40
2023-04-22T07:56:44.983Z,14.90
2023-04-22T07:59:32.232Z,15.50
2023-04-22T08:02:19.404Z,15.60
2023-04-22T08:05:07.227Z,17.40
2023-04-22T08:07:55.764Z,18.20
2023-04-22T08:10:57.478Z,17.90
2023-04-22T08:13:47.944Z,18.50
2023-04-22T08:16:34.662Z,16.80
2023-04-22T08:19:22.040Z,16.30
2023-04-22T08:22:08.687Z,16.80
2023-04-22T08:24:56.890Z,18.00
2023-04-22T08:27:43.867Z,19.10
2023-04-22T08:30:30.761Z,19.40
2023-04-22T08:33:17.574Z,21.20
2023-04-22T08:36:04.990Z,22.40
2023-04-22T08:38:52.062Z,21.20
2023-04-22T08:41:40.614Z,19.70
2023-04-22T08:44:28.160Z,19.90
2023-04-22T08:47:16.870Z,20.80
2023-04-22T08:50:05.528Z,21.30
2023-04-22T08:52:52.348Z,21.70
2023-04-22T08:55:41.172Z,22.10
2023-04-22T08:58:29.975Z,21.30
2023-04-22T09:01:18.406Z,21.10
2023-04-22T09:04:05.454Z,20.50
2023-04-22T09:06:52.337Z,20.50
2023-04-22T09:09:39.653Z,21.30
2023-04-22T09:12:27.672Z,20.50
2023-04-22T09:15:16.357Z,20.20
2023-04-22T09:18:05.601Z,20.00
2023-04-22T09:20:56.578Z,20.60
2023-04-22T09:23:50.000Z,19.80
2023-04-22T09:26:41.272Z,19.90
2023-04-22T09:29:32.253Z,19.70
2023-04-22T09:32:20.988Z,19.70
2023-04-22T09:35:08.854Z,20.00
2023-04-22T09:37:56.040Z,20.70
2023-04-22T09:40:44.547Z,21.50
2023-04-22T09:43:34.325Z,22.20
2023-04-22T09:46:23.397Z,22.80
2023-04-22T09:49:14.826Z,23.40
2023-04-22T09:52:01.731Z,23.00
2023-04-22T09:54:51.886Z,23.70
2023-04-22T09:57:41.207Z,23.60
2023-04-22T10:00:34.080Z,23.90
2023-04-22T10:03:21.098Z,24.20
2023-04-22T10:06:09.942Z,24.10
2023-04-22T10:08:57.596Z,23.80
2023-04-22T10:11:44.430Z,23.80
2023-04-22T10:14:31.745Z,23.80
2023-04-22T10:17:20.429Z,24.10
2023-04-22T10:20:14.607Z,23.80
2023-04-22T10:23:06.068Z,23.50
2023-04-22T10:25:55.855Z,23.60
2023-04-22T10:28:47.093Z,24.00
2023-04-22T10:31:34.174Z,24.50
2023-04-22T10:34:21.334Z,23.80
2023-04-22T10:37:09.691Z,23.60
2023-04-22T10:40:11.189Z,22.90
2023-04-22T10:43:03.547Z,22.30
2023-04-22T10:45:50.845Z,21.70
2023-04-22T10:48:50.178Z,20.70
2023-04-22T10:51:41.111Z,20.70
2023-04-22T10:55:00.683Z,21.30
2023-04-22T10:57:50.589Z,21.00
2023-04-22T11:03:39.240Z,20.50
2023-04-22T11:06:30.367Z,19.80
2023-04-22T11:09:17.577Z,21.00
2023-04-22T11:12:42.112Z,20.50
2023-04-22T11:15:32.284Z,20.80
2023-04-22T11:18:22.052Z,20.50
2023-04-22T11:21:09.515Z,20.60
2023-04-22T11:24:03.010Z,20.80
2023-04-22T11:26:49.854Z,20.70
2023-04-22T11:29:37.224Z,21.00
2023-04-22T11:32:25.996Z,20.60
2023-04-22T11:35:15.081Z,19.80
2023-04-22T11:38:04.081Z,19.00
2023-04-22T11:40:50.840Z,18.10
2023-04-22T11:43:47.731Z,17.50
2023-04-22T11:46:38.594Z,17.00
2023-04-22T11:49:28.163Z,16.50
2023-04-22T11:52:14.885Z,16.60
2023-04-22T11:55:01.838Z,16.60
2023-04-22T11:57:57.666Z,17.00
2023-04-22T12:00:46.569Z,17.30
2023-04-22T12:03:35.965Z,17.20
2023-04-22T12:06:24.135Z,17.10
2023-04-22T12:09:13.865Z,17.30
2023-04-22T12:12:01.686Z,17.20
2023-04-22T12:14:49.755Z,17.10
2023-04-22T12:17:36.717Z,17.00
2023-04-22T12:20:24.647Z,16.70
2023-04-22T12:23:17.189Z,16.60
2023-04-22T12:26:04.573Z,16.60
2023-04-22T12:28:52.283Z,16.40
2023-04-22T12:31:38.962Z,16.30
2023-04-22T12:34:26.029Z,15.80
2023-04-22T12:37:13.352Z,15.20
2023-04-22T12:40:01.537Z,14.90
2023-04-22T12:42:49.177Z,14.70
2023-04-22T12:45:36.495Z,15.10
2023-04-22T12:48:23.899Z,15.20
2023-04-22T12:51:11.679Z,15.40
2023-04-22T12:53:58.662Z,15.60
2023-04-22T12:56:47.932Z,15.90
2023-04-22T12:59:34.819Z,15.80
2023-04-22T13:02:22.026Z,16.10
2023-04-22T13:05:09.534Z,16.00
2023-04-22T13:08:07.204Z,16.10
2023-04-22T13:10:54.829Z,16.40
2023-04-22T13:13:43.236Z,16.40
2023-04-22T13:16:30.364Z,16.60
2023-04-22T13:19:17.421Z,17.00
2023-04-22T13:22:04.607Z,16.80
2023-04-22T13:24:51.413Z,17.00
2023-04-22T13:27:38.830Z,17.00
2023-04-22T13:30:39.357Z,17.00
2023-04-22T13:33:26.118Z,16.50
2023-04-22T13:36:12.758Z,16.60
2023-04-22T13:38:59.928Z,16.30
2023-04-22T13:41:47.220Z,16.50
2023-04-22T13:44:33.969Z,16.60
2023-04-22T13:47:22.229Z,16.60
2023-04-22T13:50:10.889Z,16.60
2023-04-22T13:52:58.163Z,16.30
2023-04-22T13:55:44.826Z,16.50
2023-04-22T13:58:32.599Z,16.80
2023-04-22T14:01:19.730Z,17.10
2023-04-22T14:04:08.303Z,16.90
2023-04-22T14:06:55.178Z,16.80
2023-04-22T14:09:42.401Z,17.00
2023-04-22T14:12:29.888Z,17.10
2023-04-22T14:15:16.732Z,17.20
2023-04-22T14:18:03.726Z,17.20
2023-04-22T14:20:52.579Z,17.00
2023-04-22T14:23:41.864Z,17.20
2023-04-22T14:26:28.997Z,16.90
2023-04-22T14:29:19.190Z,16.90
2023-04-22T14:32:09.526Z,16.70
2023-04-22T14:34:56.592Z,16.60
2023-04-22T14:37:45.086Z,16.60
2023-04-22T14:40:33.855Z,16.20
2023-04-22T14:43:21.544Z,16.30
2023-04-22T14:46:08.617Z,16.30
2023-04-22T14:48:55.799Z,16.50
2023-04-22T14:51:42.677Z,16.60
2023-04-22T14:54:31.330Z,16.70
2023-04-22T14:57:18.634Z,16.90
2023-04-22T15:00:07.506Z,16.80
2023-04-22T15:02:56.920Z,16.90
2023-04-22T15:05:44.398Z,16.70
2023-04-22T15:08:31.282Z,16.40
2023-04-22T15:11:19.704Z,16.30
2023-04-22T15:14:06.688Z,16.20
2023-04-22T15:16:53.795Z,16.10
2023-04-22T15:19:41.351Z,15.80
2023-04-22T15:22:28.587Z,15.80
2023-04-22T15:25:17.413Z,15.70
2023-04-22T15:28:06.230Z,15.60
2023-04-22T15:30:53.159Z,15.50
2023-04-22T15:33:39.793Z,15.40
2023-04-22T15:36:26.800Z,15.30
2023-04-22T15:39:13.709Z,15.30
2023-04-22T15:42:00.294Z,15.40
2023-04-22T15:44:48.562Z,15.20
2023-04-22T15:47:36.609Z,15.10
2023-04-22T15:50:25.059Z,15.00
2023-04-22T15:53:12.085Z,14.90
2023-04-22T15:55:59.230Z,14.90
2023-04-22T15:58:46.667Z,14.70
2023-04-22T16:01:35.239Z,14.50
2023-04-22T16:04:22.207Z,14.50
2023-04-22T16:07:10.379Z,14.30
2023-04-22T16:09:57.165Z,14.20
2023-04-22T16:12:44.353Z,14.20
2023-04-22T16:15:31.421Z,14.10
2023-04-22T16:18:19.922Z,14.00
2023-04-22T16:21:08.414Z,14.00
2023-04-22T16:23:55.592Z,14.10
2023-04-22T16:26:43.520Z,14.10
2023-04-22T16:29:30.200Z,14.00
2023-04-22T16:32:17.814Z,14.00
2023-04-22T16:35:06.771Z,13.90
2023-04-22T16:37:53.670Z,13.90
2023-04-22T16:40:41.102Z,13.90
2023-04-22T16:43:28.005Z,13.90
2023-04-22T16:46:15.167Z,13.90
2023-04-22T16:49:05.114Z,13.90
2023-04-22T16:51:53.838Z,13.90
2023-04-22T16:54:42.572Z,13.90
2023-04-22T16:57:29.596Z,13.80
2023-04-22T17:00:17.334Z,13.80
2023-04-22T17:03:05.385Z,13.80
2023-04-22T17:05:52.405Z,13.70
2023-04-22T17:08:41.416Z,13.70
2023-04-22T17:11:32.294Z,13.70
2023-04-22T17:14:19.716Z,13.60
2023-04-22T17:17:07.104Z,13.60
2023-04-22T17:19:53.875Z,13.60
2023-04-22T17:22:41.342Z,13.50
2023-04-22T17:25:29.952Z,13.50
2023-04-22T17:28:17.126Z,13.50
2023-04-22T17:31:04.761Z,13.50
2023-04-22T17:33:54.851Z,13.40
2023-04-22T17:36:44.518Z,13.40
2023-04-22T17:39:31.918Z,13.30
2023-04-22T17:42:20.366Z,13.30
2023-04-22T17:45:08.459Z,13.20
2023-04-22T17:47:55.479Z,13.10
2023-04-22T17:50:42.447Z,13.10
2023-04-22T17:53:29.139Z,13.00
2023-04-22T17:56:16.596Z,13.00
2023-04-22T17:59:08.252Z,12.90
2023-04-22T18:01:55.551Z,12.80
2023-04-22T18:04:42.281Z,12.80
2023-04-22T18:07:29.105Z,12.70
2023-04-22T18:10:16.161Z,12.60
2023-04-22T18:13:03.412Z,12.60
2023-04-22T18:15:52.019Z,12.50
2023-04-22T18:18:39.368Z,12.50
2023-04-22T18:21:28.507Z,12.40
2023-04-22T18:24:16.123Z,12.30
2023-04-22T18:27:06.452Z,12.20
2023-04-22T18:29:55.209Z,12.10
2023-04-22T18:32:43.881Z,12.00
2023-04-22T18:35:31.387Z,12.00
2023-04-22T18:38:18.848Z,12.00
2023-04-22T18:41:06.031Z,11.90
2023-04-22T18:43:53.654Z,11.80
2023-04-22T18:46:40.628Z,11.80
2023-04-22T18:49:33.866Z,11.70
2023-04-22T18:52:21.178Z,11.60
2023-04-22T18:55:08.724Z,11.60
2023-04-22T18:57:58.777Z,11.50
2023-04-22T19:00:45.998Z,11.40
2023-04-22T19:03:33.094Z,11.40
2023-04-22T19:06:21.687Z,11.40
2023-04-22T19:09:08.670Z,11.30
2023-04-22T19:11:55.625Z,11.30
2023-04-22T19:14:42.831Z,11.30
2023-04-22T19:17:30.044Z,11.20
2023-04-22T19:20:16.804Z,11.20
2023-04-22T19:23:05.390Z,11.20
2023-04-22T19:25:54.965Z,11.10
2023-04-22T19:28:47.321Z,11.30
2023-04-22T19:31:34.335Z,11.10
2023-04-22T19:34:21.305Z,11.00
2023-04-22T19:37:08.312Z,11.00
2023-04-22T19:39:59.080Z,11.00
2023-04-22T19:42:46.805Z,10.90
2023-04-22T19:45:33.934Z,10.90
2023-04-22T19:48:21.288Z,10.90
2023-04-22T19:51:10.101Z,10.90
2023-04-22T19:53:58.811Z,10.90
2023-04-22T19:56:47.938Z,10.90
2023-04-22T19:59:35.767Z,10.80
2023-04-22T20:02:24.001Z,10.80
2023-04-22T20:05:11.891Z,10.70
2023-04-22T20:07:59.997Z,10.70
2023-04-22T20:10:49.734Z,10.60
2023-04-22T20:13:39.030Z,10.50
2023-04-22T20:16:27.096Z,10.50
2023-04-22T20:19:17.681Z,10.40
2023-04-22T20:22:07.875Z,10.40
2023-04-22T20:25:03.854Z,10.30
2023-04-22T20:27:51.397Z,10.30
2023-04-22T20:30:40.947Z,10.20
2023-04-22T20:33:28.113Z,10.20
2023-04-22T20:36:16.295Z,10.20
2023-04-22T20:39:06.260Z,10.10
2023-04-22T20:41:56.430Z,10.10
2023-04-22T20:44:43.917Z,10.10
2023-04-22T20:47:32.642Z,10.00
2023-04-22T20:50:20.752Z,10.00
2023-04-22T20:53:07.588Z,9.90
2023-04-22T20:55:54.816Z,9.90
2023-04-22T20:58:41.867Z,9.90
2023-04-22T21:01:30.225Z,9.80
2023-04-22T21:04:19.454Z,9.80
2023-04-22T21:07:07.982Z,9.80
2023-04-22T21:09:55.522Z,9.80
2023-04-22T21:12:42.856Z,9.90
2023-04-22T21:15:31.154Z,9.90
2023-04-22T21:18:22.482Z,9.90
2023-04-22T21:21:12.341Z,9.90
2023-04-22T21:24:01.984Z,9.90
2023-04-22T21:26:49.352Z,9.90
2023-04-22T21:29:38.977Z,9.90
2023-04-22T21:32:26.813Z,9.90
2023-04-22T21:35:13.986Z,10.00
2023-04-22T21:38:03.737Z,9.90
2023-04-22T21:40:50.995Z,9.90
2023-04-22T21:43:37.989Z,9.90
2023-04-22T21:46:25.601Z,9.90
2023-04-22T21:49:12.623Z,9.80
2023-04-22T21:51:59.740Z,9.80
2023-04-22T21:54:48.358Z,9.80
2023-04-22T21:57:35.307Z,9.80
2023-04-22T22:00:24.037Z,9.70
2023-04-22T22:03:12.941Z,9.70
2023-04-22T22:06:00.560Z,9.60
2023-04-22T22:08:47.814Z,9.60
2023-04-22T22:11:36.182Z,9.60
2023-04-22T22:14:22.980Z,9.60
2023-04-22T22:17:10.214Z,9.60
2023-04-22T22:19:57.276Z,9.50
2023-04-22T22:22:45.364Z,9.50
2023-04-22T22:25:32.031Z,9.50
2023-04-22T22:28:20.786Z,9.50
2023-04-22T22:31:08.455Z,9.50
2023-04-22T22:33:55.417Z,9.50
2023-04-22T22:36:42.416Z,9.50
2023-04-22T22:39:29.271Z,9.50
2023-04-22T22:42:18.290Z,9.50
2023-04-22T22:45:07.320Z,9.50
2023-04-22T22:47:54.390Z,9.40
2023-04-22T22:50:47.821Z,9.40
2023-04-22T22:53:36.731Z,9.50
2023-04-22T22:56:23.774Z,9.60
2023-04-22T22:59:11.028Z,9.60
2023-04-22T23:02:00.202Z,9.70
2023-04-22T23:04:47.518Z,9.80
2023-04-22T23:07:35.951Z,9.80
2023-04-22T23:10:23.034Z,9.80
2023-04-22T23:13:09.831Z,9.80
2023-04-22T23:15:56.864Z,9.80
2023-04-22T23:18:48.243Z,9.80
2023-04-22T23:21:37.022Z,9.80
2023-04-22T23:24:24.338Z,9.80
2023-04-22T23:27:14.358Z,9.80
2023-04-22T23:30:01.706Z,9.80
2023-04-22T23:32:49.778Z,9.80
2023-04-22T23:35:41.495Z,9.80
2023-04-22T23:38:28.659Z,9.80
2023-04-22T23:41:16.017Z,9.80
2023-04-22T23:44:03.004Z,9.80
2023-04-22T23:46:52.883Z,9.80
2023-04-22T23:49:39.613Z,9.70
2023-04-22T23:52:28.216Z,9.70
2023-04-22T23:55:16.163Z,9.60
2023-04-22T23:58:03.357Z,9.60
